Time;durP1;ratioP1;P1;durP2;ratioP2;P2;SDS_P1;SDS_P2;PMS_P1;PMS_P2;Temp;Humidity;BMP_temperature;BMP_pressure;BME280_temperature;BME280_humidity;BME280_pressure;Samples;Min_cycle;Max_cycle;Signal;HPM_P1;HPM_P2
2023/02/14 00:00:49;;;;;;;;;;;;;;;;;;5073211;28;1168;-49
2023/02/14 00:03:16;;;;;;;;;;;;;;;;;;5072823;28;1465;-42
2023/02/14 00:05:43;;;;;;;;;;;;;;;;;;5073199;28;1061;-51
2023/02/14 00:08:11;;;;;;;;;;;;;;;;;;5072884;28;1176;-49
2023/02/14 00:10:38;;;;;;;;;;;;;;;;;;5072925;28;987;-47
2023/02/14 00:13:05;;;;;;;;;;;;;;;;;;5075879;28;1167;-50
2023/02/14 00:15:32;;;;;;;;;;;;;;;;;;5093145;28;1917;-47
2023/02/14 00:17:59;;;;;;;;;;;;;;;;;;5092839;28;1063;-47
2023/02/14 00:20:27;;;;;;;;;;;;;;;;;;5092282;28;1182;-50
2023/02/14 00:22:54;;;;;;;;;;;;;;;;;;5093062;28;1033;-48
2023/02/14 00:25:21;;;;;;;;;;;;;;;;;;5092667;28;974;-50
2023/02/14 00:27:49;;;;;;;;;;;;;;;;;;5092847;28;1019;-52
2023/02/14 00:30:16;;;;;;;;;;;;;;;;;;5092553;28;942;-52
2023/02/14 00:32:43;;;;;;;;;;;;;;;;;;5092796;28;1078;-47
2023/02/14 00:35:11;;;;;;;;;;;;;;;;;;5092558;28;1925;-51
2023/02/14 00:37:41;;;;;;;;;;;;;;;;;;5092610;28;1133;-52
2023/02/14 00:40:08;;;;;;;;;;;;;;;;;;5092855;28;1119;-48
2023/02/14 00:42:38;;;;;;;;;;;;;;;;;;5092713;28;1104;-50
2023/02/14 00:45:05;;;;;;;;;;;;;;;;;;5092593;28;1047;-50
2023/02/14 00:47:34;;;;;;;;;;;;;;;;;;5092487;28;1062;-48
2023/02/14 00:50:01;;;;;;;;;;;;;;;;;;5092226;28;1252;-50
2023/02/14 00:52:29;;;;;;;;;;;;;;;;;;5092303;28;1165;-53
2023/02/14 00:54:56;;;;;;;;;;;;;;;;;;5092306;28;1918;-53
2023/02/14 00:57:24;;;;;;;;;;;;;;;;;;5092239;28;1100;-52
2023/02/14 00:59:51;;;;;;;;;;;;;;;;;;5092282;28;960;-51
2023/02/14 01:02:19;;;;;;;;;;;;;;;;;;5088334;28;1395;-50
2023/02/14 01:04:46;;;;;;;;;;;;;;;;;;5071939;28;1166;-47
2023/02/14 01:07:14;;;;;;;;;;;;;;;;;;5071774;28;972;-52
2023/02/14 01:09:41;;;;;;;;;;;;;;;;;;5071814;28;1288;-48
2023/02/14 01:12:08;;;;;;;;;;;;;;;;;;5070487;28;1275;-50
2023/02/14 01:14:35;;;;;;;;;;;;;;;;;;5071358;28;1905;-50
2023/02/14 01:17:02;;;;;;;;;;;;;;;;;;5070511;28;1429;-53
2023/02/14 01:19:29;;;;;;;;;;;;;;;;;;5071543;28;1295;-49
2023/02/14 01:21:59;;;;;;;;;;;;;;;;;;5071577;28;1032;-49
2023/02/14 01:24:26;;;;;;;;;;;;;;;;;;5071533;28;1066;-49
2023/02/14 01:26:53;;;;;;;;;;;;;;;;;;5070205;28;1872;-49
2023/02/14 01:29:20;;;;;;;;;;;;;;;;;;5071677;28;1047;-46
2023/02/14 01:31:48;;;;;;;;;;;;;;;;;;5069130;28;1416;-52
2023/02/14 01:34:16;;;;;;;;;;;;;;;;;;5071285;28;1013;-49
2023/02/14 01:36:45;;;;;;;;;;;;;;;;;;5070030;28;1973;-50
2023/02/14 01:39:13;;;;;;;;;;;;;;;;;;5071409;28;988;-43
2023/02/14 01:41:47;;;;;;;;;;;;;;;;;;5071367;28;1079;-48
2023/02/14 01:44:15;;;;;;;;;;;;;;;;;;5071447;28;1402;-52
2023/02/14 01:46:43;;;;;;;;;;;;;;;;;;5071534;28;1246;-49
2023/02/14 01:49:24;;;;;;;;;;;;;;;;;;5071497;28;1314;-44
2023/02/14 01:51:57;;;;;;;;;;;;;;;;;;5071131;28;1115;-44
2023/02/14 01:54:26;;;;;;;;;;;;;;;;;;5069794;28;1248;-47
2023/02/14 01:56:58;;;;;;;;;;;;;;;;;;5069721;28;1043;-52
2023/02/14 01:59:29;;;;;;;;;;;;;;;;;;5069736;28;1344;-46
2023/02/14 02:01:57;;;;;;;;;;;;;;;;;;5071146;28;1199;-51
2023/02/14 02:04:44;;;;;;;;;;;;;;;;;;5086128;28;1475;-51
2023/02/14 02:07:14;;;;;;;;;;;;;;;;;;5070074;28;1779;-52
2023/02/14 02:09:51;;;;;;;;;;;;;;;;;;5070019;28;1833;-53
2023/02/14 02:12:19;;;;;;;;;;;;;;;;;;5070792;28;1025;-52
2023/02/14 02:14:47;;;;;;;;;;;;;;;;;;5069485;28;1967;-46
2023/02/14 02:17:17;;;;;;;;;;;;;;;;;;5071225;28;1097;-52
2023/02/14 02:19:50;;;;;;;;;;;;;;;;;;5071015;28;1161;-50
2023/02/14 02:22:18;;;;;;;;;;;;;;;;;;5070978;28;1202;-48
2023/02/14 02:24:50;;;;;;;;;;;;;;;;;;5069616;28;1328;-41
2023/02/14 02:27:27;;;;;;;;;;;;;;;;;;5069678;28;1282;-38
2023/02/14 02:30:16;;;;;;;;;;;;;;;;;;5070861;28;936;-52
2023/02/14 02:33:02;;;;;;;;;;;;;;;;;;5071218;28;1131;-49
2023/02/14 02:35:50;;;;;;;;;;;;;;;;;;5070717;28;1906;-52
2023/02/14 02:38:33;;;;;;;;;;;;;;;;;;5070224;28;1701;-45
2023/02/14 02:41:17;;;;;;;;;;;;;;;;;;5070716;28;1160;-47
2023/02/14 02:43:50;;;;;;;;;;;;;;;;;;5074501;28;1079;-53
2023/02/14 02:53:01;;;;;;;;;;;;;;;;;;5074816;28;1025;-49
2023/02/14 02:55:02;;;;;;;;;;;;;;;;;;5106774;28;1902;-49
2023/02/14 02:57:33;;;;;;;;;;;;;;;;;;5074297;28;1232;-50
2023/02/14 03:00:02;;;;;;;;;;;;;;;;;;5074470;28;1033;-49
2023/02/14 03:02:31;;;;;;;;;;;;;;;;;;5072779;28;1376;-52
2023/02/14 03:05:01;;;;;;;;;;;;;;;;;;5072963;28;964;-51
2023/02/14 03:07:34;;;;;;;;;;;;;;;;;;5074163;28;1170;-46
2023/02/14 03:10:19;;;;;;;;;;;;;;;;;;5074211;28;972;-54
2023/02/14 03:12:55;;;;;;;;;;;;;;;;;;5072706;28;1396;-50
2023/02/14 03:15:37;;;;;;;;;;;;;;;;;;5072711;28;1961;-50
2023/02/14 03:18:12;;;;;;;;;;;;;;;;;;5072855;28;1512;-48
2023/02/14 03:20:48;;;;;;;;;;;;;;;;;;5073726;28;1072;-53
2023/02/14 03:23:21;;;;;;;;;;;;;;;;;;5074045;28;940;-49
2023/02/14 03:25:48;;;;;;;;;;;;;;;;;;5074009;28;987;-47
2023/02/14 03:28:39;;;;;;;;;;;;;;;;;;5072881;28;1277;-47
2023/02/14 03:31:26;;;;;;;;;;;;;;;;;;5072575;28;1419;-48
2023/02/14 03:34:00;;;;;;;;;;;;;;;;;;5072061;28;1625;-49
2023/02/14 03:36:33;;;;;;;;;;;;;;;;;;5073635;28;1971;-45
2023/02/14 03:39:23;;;;;;;;;;;;;;;;;;5073534;28;1194;-52
2023/02/14 03:42:04;;;;;;;;;;;;;;;;;;5069425;28;1851;-46
2023/02/14 03:44:33;;;;;;;;;;;;;;;;;;5073455;28;1125;-49
2023/02/14 03:47:23;;;;;;;;;;;;;;;;;;5073583;28;1080;-49
2023/02/14 03:49:52;;;;;;;;;;;;;;;;;;5073609;28;1093;-50
2023/02/14 03:52:20;;;;;;;;;;;;;;;;;;5073243;28;1153;-45
2023/02/14 03:54:51;;;;;;;;;;;;;;;;;;5072328;28;1016;-50
2023/02/14 03:57:18;;;;;;;;;;;;;;;;;;5073655;28;1908;-54
2023/02/14 03:59:46;;;;;;;;;;;;;;;;;;5073272;28;1225;-48
2023/02/14 04:02:16;;;;;;;;;;;;;;;;;;5073136;28;1400;-49
2023/02/14 04:04:44;;;;;;;;;;;;;;;;;;5073282;28;1003;-48
2023/02/14 04:07:13;;;;;;;;;;;;;;;;;;5073201;28;1250;-48
2023/02/14 04:09:40;;;;;;;;;;;;;;;;;;5073084;28;1008;-45
2023/02/14 04:12:08;;;;;;;;;;;;;;;;;;5073144;28;967;-54
2023/02/14 04:14:35;;;;;;;;;;;;;;;;;;5073006;28;908;-51
2023/02/14 04:19:49;;;;;;;;;;;;;;;;;;5073023;28;1118;-53
2023/02/14 04:22:16;;;;;;;;;;;;;;;;;;5072745;28;1390;-45
2023/02/14 04:24:43;;;;;;;;;;;;;;;;;;5072515;28;1729;-51
2023/02/14 04:27:10;;;;;;;;;;;;;;;;;;5072515;28;2034;-51
2023/02/14 04:29:38;;;;;;;;;;;;;;;;;;5072145;28;1082;-46
2023/02/14 04:32:07;;;;;;;;;;;;;;;;;;5072399;28;1064;-53
2023/02/14 04:34:34;;;;;;;;;;;;;;;;;;5072622;28;1137;-52
2023/02/14 04:37:02;;;;;;;;;;;;;;;;;;5072572;28;1968;-51
2023/02/14 04:39:29;;;;;;;;;;;;;;;;;;5072544;28;1154;-51
2023/02/14 04:41:56;;;;;;;;;;;;;;;;;;5072376;28;937;-50
2023/02/14 04:44:24;;;;;;;;;;;;;;;;;;5072366;28;1296;-51
2023/02/14 04:46:51;;;;;;;;;;;;;;;;;;5072417;28;1066;-49
2023/02/14 04:49:19;;;;;;;;;;;;;;;;;;5072131;28;1196;-51
2023/02/14 04:51:46;;;;;;;;;;;;;;;;;;5072335;28;1035;-49
2023/02/14 04:54:13;;;;;;;;;;;;;;;;;;5072133;28;983;-48
2023/02/14 04:56:40;;;;;;;;;;;;;;;;;;5071999;28;1911;-51
2023/02/14 04:59:08;;;;;;;;;;;;;;;;;;5072043;28;1180;-48
2023/02/14 05:01:35;;;;;;;;;;;;;;;;;;5072009;28;1009;-43
2023/02/14 05:04:02;;;;;;;;;;;;;;;;;;5072100;28;1443;-49
2023/02/14 05:06:31;;;;;;;;;;;;;;;;;;5071740;28;1103;-52
2023/02/14 05:08:59;;;;;;;;;;;;;;;;;;5071905;28;1051;-48
2023/02/14 05:11:26;;;;;;;;;;;;;;;;;;5071912;28;1079;-45
2023/02/14 05:13:54;;;;;;;;;;;;;;;;;;5071895;28;1071;-49
2023/02/14 05:16:21;;;;;;;;;;;;;;;;;;5071844;28;1915;-48
2023/02/14 05:18:48;;;;;;;;;;;;;;;;;;5071521;28;1055;-50
2023/02/14 05:21:15;;;;;;;;;;;;;;;;;;5071740;28;1172;-49
2023/02/14 05:23:43;;;;;;;;;;;;;;;;;;5071423;28;1299;-50
2023/02/14 05:26:10;;;;;;;;;;;;;;;;;;5071397;28;1185;-53
2023/02/14 05:28:39;;;;;;;;;;;;;;;;;;5071599;28;1139;-49
2023/02/14 05:31:07;;;;;;;;;;;;;;;;;;5071370;28;1074;-49
2023/02/14 05:33:34;;;;;;;;;;;;;;;;;;5071518;28;1389;-49
2023/02/14 05:36:02;;;;;;;;;;;;;;;;;;5076196;28;1915;-53
2023/02/14 05:38:30;;;;;;;;;;;;;;;;;;5091644;28;1146;-46
2023/02/14 05:40:57;;;;;;;;;;;;;;;;;;5091764;28;1023;-51
2023/02/14 05:43:25;;;;;;;;;;;;;;;;;;5091717;28;1149;-49
2023/02/14 05:45:53;;;;;;;;;;;;;;;;;;5091621;28;991;-48
2023/02/14 05:48:21;;;;;;;;;;;;;;;;;;5091635;28;1109;-53
2023/02/14 05:50:48;;;;;;;;;;;;;;;;;;5091417;28;1207;-50
2023/02/14 05:53:15;;;;;;;;;;;;;;;;;;5091420;28;1086;-50
2023/02/14 05:55:42;;;;;;;;;;;;;;;;;;5091229;28;1922;-53
2023/02/14 05:58:11;;;;;;;;;;;;;;;;;;5091307;28;1347;-51
2023/02/14 06:00:38;;;;;;;;;;;;;;;;;;5091341;28;1363;-50
2023/02/14 06:03:07;;;;;;;;;;;;;;;;;;5082295;28;1415;-48
2023/02/14 06:05:34;;;;;;;;;;;;;;;;;;5071183;28;959;-50
2023/02/14 06:08:01;;;;;;;;;;;;;;;;;;5070912;28;893;-48
2023/02/14 06:10:29;;;;;;;;;;;;;;;;;;5071485;28;1188;-48
2023/02/14 06:12:56;;;;;;;;;;;;;;;;;;5071175;28;1050;-49
2023/02/14 06:15:23;;;;;;;;;;;;;;;;;;5069813;28;1142;-52
2023/02/14 06:17:54;;;;;;;;;;;;;;;;;;5073224;28;1910;-48
2023/02/14 06:20:23;;;;;;;;;;;;;;;;;;5074987;28;920;-47
2023/02/14 06:22:50;;;;;;;;;;;;;;;;;;5073877;28;997;-46
2023/02/14 06:25:18;;;;;;;;;;;;;;;;;;5074845;28;1110;-53
2023/02/14 06:27:45;;;;;;;;;;;;;;;;;;5074965;28;1152;-51
2023/02/14 06:30:15;;;;;;;;;;;;;;;;;;5073760;28;1288;-51
2023/02/14 06:32:42;;;;;;;;;;;;;;;;;;5074699;28;1149;-49
2023/02/14 06:35:13;;;;;;;;;;;;;;;;;;5074437;28;1502;-47
2023/02/14 06:37:44;;;;;;;;;;;;;;;;;;5074857;28;1907;-46
2023/02/14 06:40:11;;;;;;;;;;;;;;;;;;5074828;28;963;-49
2023/02/14 06:42:38;;;;;;;;;;;;;;;;;;5074742;28;1038;-51
2023/02/14 06:45:06;;;;;;;;;;;;;;;;;;5074741;28;1169;-41
2023/02/14 06:47:33;;;;;;;;;;;;;;;;;;5074306;28;920;-40
2023/02/14 06:50:03;;;;;;;;;;;;;;;;;;5074712;28;1251;-41
2023/02/14 06:52:32;;;;;;;;;;;;;;;;;;5074649;28;1327;-52
2023/02/14 06:54:59;;;;;;;;;;;;;;;;;;5074730;28;1005;-40
2023/02/14 06:57:26;;;;;;;;;;;;;;;;;;5074192;28;1906;-41
2023/02/14 06:59:53;;;;;;;;;;;;;;;;;;5072812;28;1174;-41
2023/02/14 07:02:20;;;;;;;;;;;;;;;;;;5074246;28;1384;-40
2023/02/14 07:04:50;;;;;;;;;;;;;;;;;;5074184;28;1027;-39
2023/02/14 07:07:18;;;;;;;;;;;;;;;;;;5074280;28;947;-41
2023/02/14 07:09:45;;;;;;;;;;;;;;;;;;5074261;28;1018;-45
2023/02/14 07:12:12;;;;;;;;;;;;;;;;;;5074042;28;904;-40
2023/02/14 07:14:39;;;;;;;;;;;;;;;;;;5073974;28;998;-41
2023/02/14 07:17:06;;;;;;;;;;;;;;;;;;5073827;28;1979;-42
2023/02/14 07:19:33;;;;;;;;;;;;;;;;;;5074351;28;1102;-41
2023/02/14 07:22:03;;;;;;;;;;;;;;;;;;5094607;28;1386;-40
2023/02/14 07:24:30;;;;;;;;;;;;;;;;;;5094368;28;993;-40
2023/02/14 07:26:57;;;;;;;;;;;;;;;;;;5094172;28;1056;-41
2023/02/14 07:29:25;;;;;;;;;;;;;;;;;;5092749;28;1153;-41
2023/02/14 07:31:54;;;;;;;;;;;;;;;;;;5094129;28;947;-40
2023/02/14 07:34:21;;;;;;;;;;;;;;;;;;5092563;28;1421;-41
2023/02/14 07:36:48;;;;;;;;;;;;;;;;;;5093810;28;1979;-40
2023/02/14 07:39:16;;;;;;;;;;;;;;;;;;5093706;28;919;-42
2023/02/14 07:41:43;;;;;;;;;;;;;;;;;;5093690;28;1249;-41
2023/02/14 07:44:10;;;;;;;;;;;;;;;;;;5093942;28;1146;-41
2023/02/14 07:46:37;;;;;;;;;;;;;;;;;;5093598;28;1023;-41
2023/02/14 07:49:05;;;;;;;;;;;;;;;;;;5093976;28;1161;-42
2023/02/14 07:51:32;;;;;;;;;;;;;;;;;;5093925;28;1273;-41
2023/02/14 07:53:59;;;;;;;;;;;;;;;;;;5093531;28;1048;-42
2023/02/14 07:56:26;;;;;;;;;;;;;;;;;;5093619;28;1914;-41
2023/02/14 07:58:53;;;;;;;;;;;;;;;;;;5092031;28;1034;-43
2023/02/14 08:01:20;;;;;;;;;;;;;;;;;;5088791;28;1166;-42
2023/02/14 08:03:48;;;;;;;;;;;;;;;;;;5073092;28;1548;-43
2023/02/14 08:06:16;;;;;;;;;;;;;;;;;;5073170;28;1111;-41
2023/02/14 08:08:43;;;;;;;;;;;;;;;;;;5073012;28;1594;-54
2023/02/14 08:11:11;;;;;;;;;;;;;;;;;;5073040;28;1075;-41
2023/02/14 08:13:38;;;;;;;;;;;;;;;;;;5073165;28;1088;-42
2023/02/14 08:16:05;;;;;;;;;;;;;;;;;;5072700;28;1007;-43
2023/02/14 08:18:34;;;;;;;;;;;;;;;;;;5072845;28;2070;-43
2023/02/14 08:21:01;;;;;;;;;;;;;;;;;;5072773;28;1105;-42
2023/02/14 08:23:29;;;;;;;;;;;;;;;;;;5072683;28;1161;-43
2023/02/14 08:25:56;;;;;;;;;;;;;;;;;;5072859;28;973;-41
2023/02/14 08:28:24;;;;;;;;;;;;;;;;;;5072649;28;911;-46
2023/02/14 08:30:51;;;;;;;;;;;;;;;;;;5072612;28;1301;-42
2023/02/14 08:33:19;;;;;;;;;;;;;;;;;;5072725;28;1242;-50
2023/02/14 08:35:46;;;;;;;;;;;;;;;;;;5072261;28;1669;-42
2023/02/14 08:38:14;;;;;;;;;;;;;;;;;;5072431;28;1964;-42
2023/02/14 08:40:41;;;;;;;;;;;;;;;;;;5071906;28;1012;-43
2023/02/14 08:43:08;;;;;;;;;;;;;;;;;;5072784;28;1303;-42
2023/02/14 08:45:36;;;;;;;;;;;;;;;;;;5072979;28;1111;-42
2023/02/14 08:48:04;;;;;;;;;;;;;;;;;;5072196;28;930;-44
2023/02/14 08:50:32;;;;;;;;;;;;;;;;;;5072144;28;1059;-51
2023/02/14 08:52:59;;;;;;;;;;;;;;;;;;5071960;28;1059;-42
2023/02/14 08:55:26;;;;;;;;;;;;;;;;;;5072176;28;1064;-42
2023/02/14 08:57:55;;;;;;;;;;;;;;;;;;5072200;28;1910;-50
2023/02/14 09:00:22;;;;;;;;;;;;;;;;;;5072045;28;1010;-43
2023/02/14 09:02:50;;;;;;;;;;;;;;;;;;5071892;28;1384;-41
2023/02/14 09:05:20;;;;;;;;;;;;;;;;;;5072030;28;1170;-40
2023/02/14 09:07:47;;;;;;;;;;;;;;;;;;5072140;28;1059;-40
2023/02/14 09:10:15;;;;;;;;;;;;;;;;;;5071719;28;1012;-49
2023/02/14 09:12:43;;;;;;;;;;;;;;;;;;5071897;28;1289;-40
2023/02/14 09:15:11;;;;;;;;;;;;;;;;;;5072017;28;948;-39
2023/02/14 09:17:38;;;;;;;;;;;;;;;;;;5071774;28;1910;-50
2023/02/14 09:20:07;;;;;;;;;;;;;;;;;;5071856;28;1117;-39
2023/02/14 09:22:35;;;;;;;;;;;;;;;;;;5071563;28;1290;-39
2023/02/14 09:25:02;;;;;;;;;;;;;;;;;;5071587;28;1127;-41
2023/02/14 09:27:29;;;;;;;;;;;;;;;;;;5071490;28;996;-40
2023/02/14 09:29:56;;;;;;;;;;;;;;;;;;5070148;28;1546;-40
2023/02/14 09:32:25;;;;;;;;;;;;;;;;;;5071428;28;1142;-40
2023/02/14 09:37:39;;;;;;;;;;;;;;;;;;5071329;28;1907;-39
2023/02/14 09:40:07;;;;;;;;;;;;;;;;;;5070029;28;1303;-39
2023/02/14 09:42:46;;;;;;;;;;;;;;;;;;5071183;28;1328;-39
2023/02/14 09:45:27;;;;;;;;;;;;;;;;;;5071319;28;1178;-40
2023/02/14 09:47:55;;;;;;;;;;;;;;;;;;5071272;28;1070;-47
2023/02/14 09:50:25;;;;;;;;;;;;;;;;;;5103558;28;1198;-39
2023/02/14 09:52:55;;;;;;;;;;;;;;;;;;5070024;28;1131;-40
2023/02/14 09:55:26;;;;;;;;;;;;;;;;;;5071046;28;1065;-40
2023/02/14 09:58:17;;;;;;;;;;;;;;;;;;5071043;28;1914;-47
2023/02/14 10:00:47;;;;;;;;;;;;;;;;;;5066097;28;1752;-40
2023/02/14 10:03:31;;;;;;;;;;;;;;;;;;5096503;28;1360;-40
2023/02/14 10:06:09;;;;;;;;;;;;;;;;;;5071256;28;1156;-44
2023/02/14 10:08:45;;;;;;;;;;;;;;;;;;5071217;28;1302;-41
2023/02/14 10:11:19;;;;;;;;;;;;;;;;;;5071264;28;1058;-41
2023/02/14 10:13:58;;;;;;;;;;;;;;;;;;5070914;28;1089;-40
2023/02/14 10:16:25;;;;;;;;;;;;;;;;;;5071050;28;1354;-46
2023/02/14 10:18:57;;;;;;;;;;;;;;;;;;5071109;28;1910;-39
2023/02/14 10:21:28;;;;;;;;;;;;;;;;;;5071058;28;1201;-39
2023/02/14 10:24:02;;;;;;;;;;;;;;;;;;5071052;28;1295;-39
2023/02/14 10:26:36;;;;;;;;;;;;;;;;;;5070760;28;1204;-38
2023/02/14 10:29:06;;;;;;;;;;;;;;;;;;5070813;28;1166;-39
2023/02/14 10:31:56;;;;;;;;;;;;;;;;;;5070983;28;1145;-39
2023/02/14 10:34:28;;;;;;;;;;;;;;;;;;5070625;28;1229;-40
2023/02/14 10:37:11;;;;;;;;;;;;;;;;;;5070705;28;1977;-40
2023/02/14 10:39:38;;;;;;;;;;;;;;;;;;5070852;28;943;-40
2023/02/14 10:42:11;;;;;;;;;;;;;;;;;;5070550;28;1020;-38
2023/02/14 10:44:44;;;;;;;;;;;;;;;;;;5070807;28;1221;-39
2023/02/14 10:47:30;;;;;;;;;;;;;;;;;;5070465;28;1076;-39
2023/02/14 10:49:57;;;;;;;;;;;;;;;;;;5070670;28;1101;-39
2023/02/14 10:52:24;;;;;;;;;;;;;;;;;;5070663;28;966;-39
2023/02/14 10:54:58;;;;;;;;;;;;;;;;;;5070564;28;1146;-39
2023/02/14 10:57:34;;;;;;;;;;;;;;;;;;5070071;28;1902;-40
2023/02/14 11:00:05;;;;;;;;;;;;;;;;;;5070815;28;1103;-43
2023/02/14 11:02:35;;;;;;;;;;;;;;;;;;5086423;28;1418;-39
2023/02/14 11:05:03;;;;;;;;;;;;;;;;;;5073734;28;1121;-39
2023/02/14 11:07:30;;;;;;;;;;;;;;;;;;5073665;28;1192;-41
2023/02/14 11:09:59;;;;;;;;;;;;;;;;;;5073814;28;1186;-40
2023/02/14 11:12:36;;;;;;;;;;;;;;;;;;5074166;28;1117;-40
2023/02/14 11:15:23;;;;;;;;;;;;;;;;;;5074066;28;1082;-40
2023/02/14 11:18:06;;;;;;;;;;;;;;;;;;5073840;28;1910;-40
2023/02/14 11:20:34;;;;;;;;;;;;;;;;;;5073866;28;1049;-39
2023/02/14 11:23:01;;;;;;;;;;;;;;;;;;5073163;28;1139;-39
2023/02/14 11:25:30;;;;;;;;;;;;;;;;;;5073961;28;1256;-39
2023/02/14 11:27:59;;;;;;;;;;;;;;;;;;5073830;28;1065;-39
2023/02/14 11:30:30;;;;;;;;;;;;;;;;;;5075796;28;1115;-39
2023/02/14 11:32:57;;;;;;;;;;;;;;;;;;5093735;28;961;-40
2023/02/14 11:35:29;;;;;;;;;;;;;;;;;;5093930;28;1273;-40
2023/02/14 11:37:56;;;;;;;;;;;;;;;;;;5093859;28;1910;-39
2023/02/14 11:40:31;;;;;;;;;;;;;;;;;;5093938;28;1102;-39
2023/02/14 11:43:11;;;;;;;;;;;;;;;;;;5093776;28;975;-46
2023/02/14 11:45:42;;;;;;;;;;;;;;;;;;5092486;28;2323;-45
2023/02/14 11:48:17;;;;;;;;;;;;;;;;;;5093607;28;1304;-43
2023/02/14 11:50:56;;;;;;;;;;;;;;;;;;5093637;28;1232;-43
2023/02/14 11:53:24;;;;;;;;;;;;;;;;;;5093526;28;916;-44
2023/02/14 11:55:54;;;;;;;;;;;;;;;;;;5093732;28;1170;-43
2023/02/14 11:58:29;;;;;;;;;;;;;;;;;;5093435;28;1976;-43
2023/02/14 12:00:56;;;;;;;;;;;;;;;;;;5093553;28;1017;-46
2023/02/14 12:03:27;;;;;;;;;;;;;;;;;;5081656;28;1347;-45
2023/02/14 12:05:59;;;;;;;;;;;;;;;;;;5073261;28;1000;-44
2023/02/14 12:08:30;;;;;;;;;;;;;;;;;;5073146;28;1190;-45
2023/02/14 12:11:01;;;;;;;;;;;;;;;;;;5072968;28;1149;-45
2023/02/14 12:13:28;;;;;;;;;;;;;;;;;;5072760;28;1043;-41
2023/02/14 12:15:57;;;;;;;;;;;;;;;;;;5071417;28;981;-43
2023/02/14 12:18:33;;;;;;;;;;;;;;;;;;5072702;28;1984;-45
2023/02/14 12:21:11;;;;;;;;;;;;;;;;;;5072501;28;1400;-43
2023/02/14 12:24:02;;;;;;;;;;;;;;;;;;5072592;28;1384;-41
2023/02/14 12:26:45;;;;;;;;;;;;;;;;;;5062773;28;1448;-47
2023/02/14 12:29:29;;;;;;;;;;;;;;;;;;5072703;28;1041;-43
2023/02/14 12:32:00;;;;;;;;;;;;;;;;;;5074700;28;1068;-42
2023/02/14 12:34:27;;;;;;;;;;;;;;;;;;5092367;28;1199;-41
2023/02/14 12:37:06;;;;;;;;;;;;;;;;;;5092877;28;1370;-40
2023/02/14 12:39:38;;;;;;;;;;;;;;;;;;5092415;28;1923;-46
2023/02/14 12:42:05;;;;;;;;;;;;;;;;;;5092401;28;956;-46
2023/02/14 12:44:40;;;;;;;;;;;;;;;;;;5092757;28;1115;-49
2023/02/14 12:47:26;;;;;;;;;;;;;;;;;;5092476;28;994;-42
2023/02/14 12:50:15;;;;;;;;;;;;;;;;;;5092802;28;1387;-43
2023/02/14 12:52:48;;;;;;;;;;;;;;;;;;5092435;28;1130;-41
2023/02/14 12:55:33;;;;;;;;;;;;;;;;;;5092110;28;1050;-43
2023/02/14 12:58:10;;;;;;;;;;;;;;;;;;5092501;28;1907;-40
2023/02/14 13:00:55;;;;;;;;;;;;;;;;;;5092266;28;1059;-45
2023/02/14 13:03:29;;;;;;;;;;;;;;;;;;5081252;28;1375;-41
2023/02/14 13:06:31;;;;;;;;;;;;;;;;;;5071959;28;1086;-41
2023/02/14 13:09:13;;;;;;;;;;;;;;;;;;5029587;28;1499;-43
2023/02/14 13:11:40;;;;;;;;;;;;;;;;;;5067740;28;1211;-44
2023/02/14 13:14:38;;;;;;;;;;;;;;;;;;5071946;28;978;-42
2023/02/14 13:17:18;;;;;;;;;;;;;;;;;;5063259;28;1413;-48
2023/02/14 13:20:02;;;;;;;;;;;;;;;;;;5071621;28;1908;-44
2023/02/14 13:22:33;;;;;;;;;;;;;;;;;;5071649;28;968;-44
2023/02/14 13:25:02;;;;;;;;;;;;;;;;;;5071664;28;1338;-43
2023/02/14 13:27:33;;;;;;;;;;;;;;;;;;5071169;28;1078;-41
2023/02/14 13:30:05;;;;;;;;;;;;;;;;;;5071618;28;1071;-43
2023/02/14 13:32:37;;;;;;;;;;;;;;;;;;5071571;28;1083;-39
2023/02/14 13:35:06;;;;;;;;;;;;;;;;;;5071197;28;1394;-41
2023/02/14 13:37:35;;;;;;;;;;;;;;;;;;5076889;28;1977;-43
2023/02/14 13:40:17;;;;;;;;;;;;;;;;;;5071467;28;1198;-48
2023/02/14 13:42:48;;;;;;;;;;;;;;;;;;5071359;28;969;-45
2023/02/14 13:45:34;;;;;;;;;;;;;;;;;;5071386;28;1232;-44
2023/02/14 13:48:19;;;;;;;;;;;;;;;;;;5071345;28;957;-44
2023/02/14 13:50:51;;;;;;;;;;;;;;;;;;5071235;28;1192;-41
2023/02/14 13:53:37;;;;;;;;;;;;;;;;;;5071372;28;1225;-46
2023/02/14 13:56:24;;;;;;;;;;;;;;;;;;5071283;28;1141;-42
2023/02/14 13:59:01;;;;;;;;;;;;;;;;;;5069374;28;2586;-44
2023/02/14 14:01:35;;;;;;;;;;;;;;;;;;5071341;28;1096;-46
2023/02/14 14:04:22;;;;;;;;;;;;;;;;;;5087845;28;1380;-41
2023/02/14 14:07:01;;;;;;;;;;;;;;;;;;5091168;28;1842;-44
2023/02/14 14:09:40;;;;;;;;;;;;;;;;;;5091379;28;1001;-46
2023/02/14 14:12:26;;;;;;;;;;;;;;;;;;5085682;28;1142;-45
2023/02/14 14:15:05;;;;;;;;;;;;;;;;;;5078434;28;1189;-44
2023/02/14 14:17:32;;;;;;;;;;;;;;;;;;5070574;28;1440;-40
2023/02/14 14:20:00;;;;;;;;;;;;;;;;;;5071054;28;1904;-44
2023/02/14 14:22:27;;;;;;;;;;;;;;;;;;5071238;28;1092;-46
2023/02/14 14:24:56;;;;;;;;;;;;;;;;;;5072006;28;1328;-40
2023/02/14 14:27:29;;;;;;;;;;;;;;;;;;5091044;28;1280;-44
2023/02/14 14:29:58;;;;;;;;;;;;;;;;;;5091182;28;1013;-41
2023/02/14 14:32:30;;;;;;;;;;;;;;;;;;5089730;28;1109;-40
2023/02/14 14:35:10;;;;;;;;;;;;;;;;;;5090754;28;1878;-42
2023/02/14 14:37:50;;;;;;;;;;;;;;;;;;5091123;28;1191;-45
2023/02/14 14:40:28;;;;;;;;;;;;;;;;;;5086943;28;1193;-40
2023/02/14 14:43:13;;;;;;;;;;;;;;;;;;5081761;28;1190;-42
2023/02/14 14:45:40;;;;;;;;;;;;;;;;;;5085082;28;1339;-44
2023/02/14 14:48:09;;;;;;;;;;;;;;;;;;5082531;28;1201;-45
2023/02/14 14:50:38;;;;;;;;;;;;;;;;;;5090697;28;1371;-42
2023/02/14 14:53:08;;;;;;;;;;;;;;;;;;5094581;28;1365;-45
2023/02/14 14:55:36;;;;;;;;;;;;;;;;;;5094483;28;1210;-40
2023/02/14 14:58:04;;;;;;;;;;;;;;;;;;5094560;28;1971;-44
2023/02/14 15:00:33;;;;;;;;;;;;;;;;;;5094803;28;943;-46
2023/02/14 15:03:10;;;;;;;;;;;;;;;;;;5086551;28;1383;-44
2023/02/14 15:05:39;;;;;;;;;;;;;;;;;;5074129;28;1065;-46
2023/02/14 15:08:21;;;;;;;;;;;;;;;;;;5074173;28;950;-42
2023/02/14 15:10:53;;;;;;;;;;;;;;;;;;5074217;28;1194;-46
2023/02/14 15:16:08;;;;;;;;;;;;;;;;;;5073998;28;1112;-47
2023/02/14 15:18:36;;;;;;;;;;;;;;;;;;5073794;28;2005;-43
2023/02/14 15:21:04;;;;;;;;;;;;;;;;;;5073964;28;982;-41
2023/02/14 15:23:31;;;;;;;;;;;;;;;;;;5074072;28;1106;-42
2023/02/14 15:25:59;;;;;;;;;;;;;;;;;;5082567;28;1186;-42
2023/02/14 15:28:28;;;;;;;;;;;;;;;;;;5086118;28;1240;-41
2023/02/14 15:31:00;;;;;;;;;;;;;;;;;;5094342;28;1023;-44
2023/02/14 15:33:29;;;;;;;;;;;;;;;;;;5081987;28;1110;-45
2023/02/14 15:35:57;;;;;;;;;;;;;;;;;;5076184;28;1202;-47
2023/02/14 15:38:25;;;;;;;;;;;;;;;;;;5089533;28;1981;-40
2023/02/14 15:40:53;;;;;;;;;;;;;;;;;;5082355;28;1181;-46
2023/02/14 15:43:26;;;;;;;;;;;;;;;;;;5093601;28;1040;-47
2023/02/14 15:45:56;;;;;;;;;;;;;;;;;;5092616;28;988;-44
2023/02/14 15:48:29;;;;;;;;;;;;;;;;;;5092680;28;1304;-44
2023/02/14 15:51:01;;;;;;;;;;;;;;;;;;5091447;28;1214;-44
2023/02/14 15:53:34;;;;;;;;;;;;;;;;;;5092797;28;1295;-47
2023/02/14 15:56:06;;;;;;;;;;;;;;;;;;5092645;28;1028;-46
2023/02/14 15:58:35;;;;;;;;;;;;;;;;;;5092393;28;1930;-44
2023/02/14 16:01:02;;;;;;;;;;;;;;;;;;5091648;28;1342;-48
2023/02/14 16:03:32;;;;;;;;;;;;;;;;;;5079213;28;1390;-50
2023/02/14 16:06:00;;;;;;;;;;;;;;;;;;5071044;28;923;-45
2023/02/14 16:08:31;;;;;;;;;;;;;;;;;;5071350;28;1292;-49
2023/02/14 16:11:00;;;;;;;;;;;;;;;;;;5070937;28;1086;-48
2023/02/14 16:13:30;;;;;;;;;;;;;;;;;;5069784;28;1326;-47
2023/02/14 16:16:07;;;;;;;;;;;;;;;;;;5071180;28;1277;-48
2023/02/14 16:18:39;;;;;;;;;;;;;;;;;;5070841;28;1906;-48
2023/02/14 16:21:19;;;;;;;;;;;;;;;;;;5071120;28;1407;-49
2023/02/14 16:24:09;;;;;;;;;;;;;;;;;;5086239;28;988;-51
2023/02/14 16:26:38;;;;;;;;;;;;;;;;;;5070952;28;919;-47
2023/02/14 16:29:05;;;;;;;;;;;;;;;;;;5072544;28;1072;-50
2023/02/14 16:31:33;;;;;;;;;;;;;;;;;;5072479;28;1244;-46
2023/02/14 16:34:00;;;;;;;;;;;;;;;;;;5072462;28;1298;-46
2023/02/14 16:36:31;;;;;;;;;;;;;;;;;;5071916;28;996;-47
2023/02/14 16:39:01;;;;;;;;;;;;;;;;;;5072298;28;1915;-49
2023/02/14 16:41:29;;;;;;;;;;;;;;;;;;5072454;28;914;-48
2023/02/14 16:43:56;;;;;;;;;;;;;;;;;;5070933;28;1018;-51
2023/02/14 16:46:30;;;;;;;;;;;;;;;;;;5072401;28;968;-48
2023/02/14 16:48:57;;;;;;;;;;;;;;;;;;5072385;28;1033;-43
2023/02/14 16:51:26;;;;;;;;;;;;;;;;;;5072454;28;1059;-50
2023/02/14 16:53:54;;;;;;;;;;;;;;;;;;5072235;28;1087;-51
2023/02/14 16:56:28;;;;;;;;;;;;;;;;;;5072289;28;1074;-49
2023/02/14 16:58:56;;;;;;;;;;;;;;;;;;5072061;28;1970;-45
2023/02/14 17:01:24;;;;;;;;;;;;;;;;;;5071298;28;1179;-47
2023/02/14 17:03:51;;;;;;;;;;;;;;;;;;5072090;28;1348;-45
2023/02/14 17:06:20;;;;;;;;;;;;;;;;;;5071674;28;1063;-51
2023/02/14 17:08:49;;;;;;;;;;;;;;;;;;5071767;28;1058;-42
2023/02/14 17:11:17;;;;;;;;;;;;;;;;;;5071683;28;1068;-49
2023/02/14 17:13:45;;;;;;;;;;;;;;;;;;5104276;28;982;-46
2023/02/14 17:16:14;;;;;;;;;;;;;;;;;;5071628;28;1293;-49
2023/02/14 17:18:46;;;;;;;;;;;;;;;;;;5071901;28;1906;-46
2023/02/14 17:21:14;;;;;;;;;;;;;;;;;;5071836;28;983;-47
2023/02/14 17:23:41;;;;;;;;;;;;;;;;;;5072040;28;1196;-47
2023/02/14 17:26:10;;;;;;;;;;;;;;;;;;5071954;28;1240;-48
2023/02/14 17:28:37;;;;;;;;;;;;;;;;;;5071181;28;1034;-44
2023/02/14 17:31:04;;;;;;;;;;;;;;;;;;5071455;28;1201;-48
2023/02/14 17:33:32;;;;;;;;;;;;;;;;;;5071398;28;909;-45
2023/02/14 17:36:04;;;;;;;;;;;;;;;;;;5071330;28;1167;-45
2023/02/14 17:38:31;;;;;;;;;;;;;;;;;;5071698;28;973;-46
2023/02/14 17:40:58;;;;;;;;;;;;;;;;;;5071396;28;1989;-44
2023/02/14 17:43:26;;;;;;;;;;;;;;;;;;5071337;28;1134;-47
2023/02/14 17:45:57;;;;;;;;;;;;;;;;;;5071245;28;1084;-43